createdAt,value
2023-01-11T00:01:53.748Z,98.55
2023-01-11T00:04:20.719Z,98.44
2023-01-11T00:06:49.397Z,98.56
2023-01-11T00:09:17.433Z,98.62
2023-01-11T00:11:44.248Z,98.58
2023-01-11T00:14:11.119Z,98.57
2023-01-11T00:16:38.280Z,98.58
2023-01-11T00:19:05.295Z,98.74
2023-01-11T00:21:32.844Z,98.61
2023-01-11T00:24:05.905Z,98.53
2023-01-11T00:26:32.475Z,98.61
2023-01-11T00:28:59.667Z,98.49
2023-01-11T00:31:26.257Z,98.45
2023-01-11T00:33:57.527Z,98.45
2023-01-11T00:36:24.921Z,98.53
2023-01-11T00:38:54.672Z,98.41
2023-01-11T00:41:43.067Z,98.61
2023-01-11T00:44:29.505Z,98.60
2023-01-11T00:47:15.395Z,98.50
2023-01-11T00:49:43.078Z,98.25
2023-01-11T00:52:10.216Z,98.30
2023-01-11T00:54:41.579Z,98.63
2023-01-11T00:57:08.876Z,98.57
2023-01-11T00:59:39.230Z,98.58
2023-01-11T01:02:06.914Z,98.56
2023-01-11T01:04:33.632Z,98.66
2023-01-11T01:07:06.016Z,98.73
2023-01-11T01:09:35.930Z,98.63
2023-01-11T01:12:02.586Z,98.59
2023-01-11T01:14:33.609Z,98.78
2023-01-11T01:17:07.675Z,98.70
2023-01-11T01:19:38.546Z,98.78
2023-01-11T01:22:06.726Z,98.86
2023-01-11T01:24:34.032Z,99.00
2023-01-11T01:27:00.612Z,98.83
2023-01-11T01:29:29.085Z,98.66
2023-01-11T01:31:56.822Z,98.58
2023-01-11T01:34:24.327Z,98.70
2023-01-11T01:36:53.228Z,98.87
2023-01-11T01:39:20.074Z,98.46
2023-01-11T01:41:46.611Z,98.80
2023-01-11T01:44:50.994Z,98.74
2023-01-11T01:47:19.673Z,98.81
2023-01-11T01:49:46.349Z,98.90
2023-01-11T01:52:13.215Z,98.80
2023-01-11T01:54:45.641Z,98.98
2023-01-11T01:57:25.367Z,98.84
2023-01-11T01:59:58.150Z,98.86
2023-01-11T02:02:26.298Z,98.80
2023-01-11T02:04:56.532Z,98.84
2023-01-11T02:07:29.417Z,98.93
2023-01-11T02:10:03.778Z,98.81
2023-01-11T02:12:55.706Z,98.79
2023-01-11T02:15:23.938Z,98.76
2023-01-11T02:17:51.588Z,98.99
2023-01-11T02:20:21.236Z,98.79
2023-01-11T02:23:17.496Z,98.88
2023-01-11T02:26:17.144Z,98.81
2023-01-11T02:29:04.840Z,98.76
2023-01-11T02:31:51.709Z,98.84
2023-01-11T02:34:37.926Z,98.79
2023-01-11T02:37:21.234Z,98.81
2023-01-11T02:40:13.711Z,98.87
2023-01-11T02:43:25.185Z,98.90
2023-01-11T02:46:16.625Z,98.99
2023-01-11T02:48:56.425Z,98.94
2023-01-11T02:51:32.475Z,98.88
2023-01-11T02:54:05.027Z,99.02
2023-01-11T02:56:37.119Z,98.99
2023-01-11T02:59:05.414Z,98.97
2023-01-11T03:01:32.881Z,98.95
2023-01-11T03:03:59.760Z,99.01
2023-01-11T03:06:34.205Z,98.88
2023-01-11T03:09:01.449Z,98.99
2023-01-11T03:12:05.510Z,98.98
2023-01-11T03:14:49.329Z,98.94
2023-01-11T03:17:36.366Z,99.01
2023-01-11T03:20:13.937Z,99.03
2023-01-11T03:23:11.878Z,99.01
2023-01-11T03:25:57.221Z,98.96
2023-01-11T03:29:05.543Z,99.08
2023-01-11T03:31:40.844Z,99.02
2023-01-11T03:34:23.244Z,99.10
2023-01-11T03:36:56.795Z,99.06
2023-01-11T03:39:44.852Z,99.05
2023-01-11T03:42:15.834Z,99.12
2023-01-11T03:44:50.338Z,98.80
2023-01-11T03:47:21.414Z,98.92
2023-01-11T03:49:55.972Z,98.83
2023-01-11T03:52:28.651Z,98.86
2023-01-11T03:54:56.652Z,98.78
2023-01-11T03:57:31.360Z,98.94
2023-01-11T04:00:00.033Z,99.01
2023-01-11T04:02:29.071Z,98.94
2023-01-11T04:04:56.712Z,98.85
2023-01-11T04:07:28.762Z,98.85
2023-01-11T04:09:55.517Z,98.86
2023-01-11T04:12:23.254Z,98.91
2023-01-11T04:14:53.183Z,98.74
2023-01-11T04:17:21.024Z,98.81
2023-01-11T04:19:48.953Z,98.60
2023-01-11T04:22:17.707Z,98.78
2023-01-11T04:24:44.386Z,98.84
2023-01-11T04:27:13.638Z,99.06
2023-01-11T04:29:42.870Z,98.95
2023-01-11T04:32:11.076Z,99.00
2023-01-11T04:34:42.410Z,98.99
2023-01-11T04:37:12.565Z,99.03
2023-01-11T04:39:39.263Z,98.80
2023-01-11T04:42:21.395Z,99.05
2023-01-11T04:44:52.698Z,98.91
2023-01-11T04:47:25.246Z,98.71
2023-01-11T04:49:52.462Z,98.97
2023-01-11T04:52:20.489Z,98.90
2023-01-11T04:54:48.988Z,98.79
2023-01-11T04:57:17.062Z,98.79
2023-01-11T04:59:47.101Z,98.85
2023-01-11T05:02:14.535Z,98.82
2023-01-11T05:04:41.578Z,98.75
2023-01-11T05:07:09.235Z,98.75
2023-01-11T05:09:37.208Z,98.77
2023-01-11T05:12:04.526Z,98.77
2023-01-11T05:14:31.211Z,98.63
2023-01-11T05:16:59.962Z,98.68
2023-01-11T05:19:29.593Z,98.76
2023-01-11T05:21:56.926Z,98.58
2023-01-11T05:24:23.799Z,98.67
2023-01-11T05:26:52.709Z,98.59
2023-01-11T05:29:21.401Z,98.48
2023-01-11T05:31:48.499Z,98.47
2023-01-11T05:34:16.173Z,98.54
2023-01-11T05:36:43.523Z,98.45
2023-01-11T05:39:18.683Z,98.36
2023-01-11T05:41:45.550Z,98.31
2023-01-11T05:44:32.511Z,98.24
2023-01-11T05:47:00.602Z,98.39
2023-01-11T05:49:29.956Z,98.22
2023-01-11T05:51:59.679Z,98.17
2023-01-11T05:54:26.313Z,98.09
2023-01-11T05:56:56.219Z,98.21
2023-01-11T05:59:23.167Z,98.21
2023-01-11T06:01:50.947Z,98.20
2023-01-11T06:04:20.417Z,98.10
2023-01-11T06:06:51.223Z,97.97
2023-01-11T06:09:22.380Z,98.10
2023-01-11T06:11:50.652Z,97.94
2023-01-11T06:14:18.418Z,98.06
2023-01-11T06:16:48.132Z,97.93
2023-01-11T06:19:23.956Z,98.01
2023-01-11T06:21:51.497Z,97.82
2023-01-11T06:24:19.127Z,97.72
2023-01-11T06:26:47.399Z,97.67
2023-01-11T06:29:18.416Z,97.66
2023-01-11T06:31:44.971Z,97.71
2023-01-11T06:34:12.435Z,97.62
2023-01-11T06:36:39.573Z,97.40
2023-01-11T06:39:06.396Z,97.27
2023-01-11T06:41:35.483Z,97.35
2023-01-11T06:44:02.245Z,97.28
2023-01-11T06:46:29.345Z,97.05
2023-01-11T06:48:57.095Z,96.96
2023-01-11T06:51:23.782Z,96.81
2023-01-11T06:53:52.799Z,96.72
2023-01-11T06:56:19.308Z,96.55
2023-01-11T06:58:52.512Z,96.59
2023-01-11T07:01:19.927Z,96.51
2023-01-11T07:03:46.800Z,96.45
2023-01-11T07:06:14.800Z,96.34
2023-01-11T07:08:42.681Z,96.36
2023-01-11T07:11:14.239Z,96.18
2023-01-11T07:13:41.193Z,96.20
2023-01-11T07:16:11.644Z,96.04
2023-01-11T07:18:40.010Z,95.89
2023-01-11T07:21:07.292Z,95.83
2023-01-11T07:23:34.294Z,95.97
2023-01-11T07:26:03.983Z,95.71
2023-01-11T07:28:30.915Z,95.68
2023-01-11T07:30:59.928Z,95.57
2023-01-11T07:33:28.264Z,95.46
2023-01-11T07:35:55.162Z,95.44
2023-01-11T07:38:22.285Z,95.20
2023-01-11T07:40:49.320Z,95.02
2023-01-11T07:43:16.466Z,94.93
2023-01-11T07:45:49.589Z,94.74
2023-01-11T07:48:25.160Z,94.86
2023-01-11T07:50:53.040Z,94.80
2023-01-11T07:53:20.215Z,94.74
2023-01-11T07:55:47.281Z,94.60
2023-01-11T07:58:15.942Z,94.82
2023-01-11T08:00:46.837Z,94.75
2023-01-11T08:03:14.317Z,94.82
2023-01-11T08:05:41.224Z,94.67
2023-01-11T08:08:12.553Z,94.90
2023-01-11T08:10:44.419Z,94.91
2023-01-11T08:13:32.096Z,94.85
2023-01-11T08:16:00.907Z,94.79
2023-01-11T08:18:27.553Z,94.65
2023-01-11T08:20:54.603Z,94.66
2023-01-11T08:23:21.432Z,94.42
2023-01-11T08:25:50.438Z,94.28
2023-01-11T08:28:17.822Z,94.36
2023-01-11T08:30:45.096Z,94.27
2023-01-11T08:33:17.826Z,94.16
2023-01-11T08:35:44.624Z,94.01
2023-01-11T08:38:11.406Z,94.23
2023-01-11T08:40:39.162Z,94.20
2023-01-11T08:43:07.346Z,94.25
2023-01-11T08:45:34.735Z,94.28
2023-01-11T08:48:01.611Z,94.20
2023-01-11T08:50:28.400Z,94.27
2023-01-11T08:52:55.100Z,93.92
2023-01-11T08:55:23.520Z,93.99
2023-01-11T08:57:53.613Z,94.12
2023-01-11T09:00:23.134Z,94.03
2023-01-11T09:02:50.178Z,94.01
2023-01-11T09:05:18.353Z,93.80
2023-01-11T09:07:46.816Z,93.48
2023-01-11T09:10:13.642Z,92.98
2023-01-11T09:12:40.433Z,93.30
2023-01-11T09:15:07.445Z,93.43
2023-01-11T09:17:34.520Z,93.44
2023-01-11T09:20:02.201Z,93.45
2023-01-11T09:22:28.972Z,93.29
2023-01-11T09:25:00.380Z,93.54
2023-01-11T09:27:27.657Z,93.30
2023-01-11T09:30:01.498Z,93.07
2023-01-11T09:32:33.560Z,90.84
2023-01-11T09:35:18.246Z,87.85
2023-01-11T09:37:54.209Z,85.07
2023-01-11T09:40:24.456Z,82.16
2023-01-11T09:42:57.331Z,79.54
2023-01-11T09:45:31.253Z,78.65
2023-01-11T09:48:11.889Z,77.61
2023-01-11T09:50:45.697Z,79.56
2023-01-11T09:53:32.205Z,79.34
2023-01-11T09:56:02.511Z,80.88
2023-01-11T09:58:51.237Z,78.83
2023-01-11T10:01:20.227Z,79.17
2023-01-11T10:03:58.458Z,78.95
2023-01-11T10:06:33.864Z,77.60
2023-01-11T10:18:32.235Z,78.83
2023-01-11T10:19:18.611Z,80.75
2023-01-11T10:21:36.107Z,82.33
2023-01-11T10:24:12.162Z,82.75
2023-01-11T10:26:42.097Z,83.17
2023-01-11T10:30:00.977Z,79.97
2023-01-11T10:32:50.173Z,77.48
2023-01-11T10:36:03.537Z,77.15
2023-01-11T10:38:41.070Z,77.93
2023-01-11T10:41:22.141Z,78.95
2023-01-11T10:44:00.369Z,79.64
2023-01-11T10:46:29.908Z,80.25
2023-01-11T10:49:11.804Z,79.22
2023-01-11T10:51:45.081Z,79.48
2023-01-11T10:54:24.775Z,76.54
2023-01-11T10:57:04.727Z,77.17
2023-01-11T10:59:51.014Z,76.89
2023-01-11T11:02:46.770Z,76.06
2023-01-11T11:05:33.580Z,76.38
2023-01-11T11:08:06.435Z,77.15
2023-01-11T11:11:01.397Z,77.62
2023-01-11T11:13:54.904Z,77.48
2023-01-11T11:16:24.419Z,76.94
2023-01-11T11:18:53.365Z,76.89
2023-01-11T11:21:28.636Z,75.57
2023-01-11T11:24:19.794Z,76.09
2023-01-11T11:26:54.069Z,77.23
2023-01-11T11:29:23.410Z,77.45
2023-01-11T11:31:51.429Z,77.54
2023-01-11T11:34:21.049Z,77.72
2023-01-11T11:36:53.456Z,76.86
2023-01-11T11:39:30.087Z,77.86
2023-01-11T11:42:07.289Z,78.02
2023-01-11T11:44:36.017Z,79.23
2023-01-11T11:47:08.035Z,79.96
2023-01-11T11:49:36.891Z,80.50
2023-01-11T11:52:06.721Z,80.91
2023-01-11T11:54:37.401Z,80.60
2023-01-11T11:57:23.876Z,80.62
2023-01-11T12:00:14.276Z,80.66
2023-01-11T12:02:49.460Z,80.77
2023-01-11T12:05:23.677Z,81.29
2023-01-11T12:07:55.486Z,81.35
2023-01-11T12:10:30.316Z,81.37
2023-01-11T12:13:02.924Z,81.32
2023-01-11T12:15:35.950Z,81.78
2023-01-11T12:18:28.139Z,81.50
2023-01-11T12:20:55.595Z,81.36
2023-01-11T12:23:26.013Z,81.36
2023-01-11T12:26:18.120Z,81.46
2023-01-11T12:29:15.185Z,81.64
2023-01-11T12:32:02.686Z,81.39
2023-01-11T12:34:36.782Z,80.90
2023-01-11T12:37:34.325Z,80.57
2023-01-11T12:40:19.077Z,80.54
2023-01-11T12:43:04.874Z,80.42
2023-01-11T12:45:55.861Z,80.51
2023-01-11T12:49:03.897Z,80.30
2023-01-11T12:51:53.567Z,79.75
2023-01-11T12:54:39.096Z,79.57
2023-01-11T12:57:32.483Z,79.69
2023-01-11T12:59:59.811Z,79.72
2023-01-11T13:02:42.012Z,79.88
2023-01-11T13:05:48.878Z,79.11
2023-01-11T13:08:33.796Z,78.75
2023-01-11T13:11:38.213Z,78.70
2023-01-11T13:14:27.689Z,79.17
2023-01-11T13:17:16.397Z,78.46
2023-01-11T13:19:49.028Z,78.69
2023-01-11T13:22:23.358Z,78.54
2023-01-11T13:24:51.630Z,77.91
2023-01-11T13:27:24.699Z,77.96
2023-01-11T13:29:58.579Z,78.02
2023-01-11T13:32:32.624Z,78.70
2023-01-11T13:35:09.531Z,78.58
2023-01-11T13:38:05.361Z,78.45
2023-01-11T13:40:38.748Z,78.03
2023-01-11T13:43:11.473Z,77.66
2023-01-11T13:45:49.001Z,77.13
2023-01-11T13:48:25.030Z,77.50
2023-01-11T13:51:20.715Z,76.97
2023-01-11T13:53:59.322Z,76.34
2023-01-11T13:56:31.894Z,76.02
2023-01-11T13:59:15.010Z,76.46
2023-01-11T14:02:12.827Z,76.53
2023-01-11T14:04:50.454Z,76.79
2023-01-11T14:07:17.423Z,77.37
2023-01-11T14:09:52.068Z,76.84
2023-01-11T14:12:21.569Z,77.19
2023-01-11T14:15:22.534Z,76.85
2023-01-11T14:17:51.980Z,76.99
2023-01-11T14:20:30.758Z,76.95
2023-01-11T14:23:12.378Z,76.95
2023-01-11T14:26:09.318Z,76.98
2023-01-11T14:28:51.483Z,76.81
2023-01-11T14:31:33.667Z,77.07
2023-01-11T14:34:19.500Z,77.06
2023-01-11T14:36:53.692Z,77.59
2023-01-11T14:39:57.963Z,77.72
2023-01-11T14:42:32.034Z,77.86
2023-01-11T14:45:20.205Z,78.11
2023-01-11T14:47:52.771Z,78.17
2023-01-11T14:50:41.336Z,78.39
2023-01-11T14:53:13.227Z,78.91
2023-01-11T14:55:48.251Z,78.95
2023-01-11T14:58:34.038Z,78.84
2023-01-11T15:01:00.573Z,78.78
2023-01-11T15:03:42.365Z,79.01
2023-01-11T15:06:14.228Z,79.27
2023-01-11T15:08:45.636Z,79.73
2023-01-11T15:11:21.315Z,80.02
2023-01-11T15:13:59.024Z,80.25
2023-01-11T15:16:46.347Z,80.41
2023-01-11T15:19:24.015Z,80.21
2023-01-11T15:21:53.686Z,80.14
2023-01-11T15:24:44.093Z,80.53
2023-01-11T15:27:38.999Z,80.35
2023-01-11T15:30:27.667Z,80.63
2023-01-11T15:32:54.597Z,80.70
2023-01-11T15:35:27.252Z,80.34
2023-01-11T15:38:18.922Z,80.39
2023-01-11T15:40:47.648Z,80.26
2023-01-11T15:43:39.031Z,80.45
2023-01-11T15:46:55.943Z,80.64
2023-01-11T15:49:41.003Z,80.34
2023-01-11T15:52:50.738Z,80.35
2023-01-11T15:55:42.991Z,80.44
2023-01-11T15:58:47.547Z,80.58
2023-01-11T16:01:17.369Z,80.60
2023-01-11T16:04:17.838Z,80.80
2023-01-11T16:07:20.975Z,80.91
2023-01-11T16:09:57.724Z,81.18
2023-01-11T16:12:57.214Z,81.12
2023-01-11T16:15:53.739Z,80.69
2023-01-11T16:18:27.587Z,80.76
2023-01-11T16:21:13.267Z,80.38
2023-01-11T16:23:41.405Z,80.08
2023-01-11T16:26:08.652Z,80.03
2023-01-11T16:28:35.696Z,80.29
2023-01-11T16:31:05.401Z,80.03
2023-01-11T16:33:36.197Z,80.00
2023-01-11T16:36:05.576Z,79.85
2023-01-11T16:38:42.720Z,79.46
2023-01-11T16:41:14.653Z,79.40
2023-01-11T16:43:51.263Z,79.08
2023-01-11T16:46:35.893Z,79.12
2023-01-11T16:49:21.272Z,79.39
2023-01-11T16:51:49.418Z,79.61
2023-01-11T16:54:27.888Z,79.66
2023-01-11T16:56:56.782Z,79.69
2023-01-11T16:59:34.877Z,79.66
2023-01-11T17:02:04.856Z,79.64
2023-01-11T17:04:37.272Z,79.53
2023-01-11T17:07:25.591Z,79.62
2023-01-11T17:09:54.948Z,79.93
2023-01-11T17:12:27.720Z,79.89
2023-01-11T17:15:19.827Z,79.65
2023-01-11T17:17:47.027Z,79.67
2023-01-11T17:20:23.907Z,79.46
2023-01-11T17:22:54.164Z,79.61
2023-01-11T17:25:44.126Z,79.56
2023-01-11T17:28:18.102Z,79.32
2023-01-11T17:30:47.157Z,79.38
2023-01-11T17:33:29.392Z,79.36
2023-01-11T17:36:00.228Z,79.10
2023-01-11T17:38:31.788Z,79.21
2023-01-11T17:41:01.463Z,78.97
2023-01-11T17:43:48.445Z,79.01
2023-01-11T17:46:21.895Z,78.71
2023-01-11T17:48:57.234Z,78.87
2023-01-11T17:51:34.738Z,79.14
2023-01-11T17:54:02.208Z,78.91
2023-01-11T17:56:41.749Z,79.07
2023-01-11T17:59:11.869Z,78.89
2023-01-11T18:01:38.790Z,78.96
2023-01-11T18:04:06.176Z,78.68
2023-01-11T18:06:42.746Z,78.84
2023-01-11T18:09:21.218Z,78.70
2023-01-11T18:11:48.121Z,78.88
2023-01-11T18:14:27.705Z,78.80
2023-01-11T18:17:08.025Z,78.51
2023-01-11T18:19:46.984Z,78.64
2023-01-11T18:22:41.008Z,78.52
2023-01-11T18:25:21.822Z,78.52
2023-01-11T18:27:51.603Z,78.52
2023-01-11T18:30:30.906Z,79.45
2023-01-11T18:32:59.789Z,80.29
2023-01-11T18:35:28.259Z,81.02
2023-01-11T18:37:58.150Z,81.46
2023-01-11T18:40:24.753Z,81.39
2023-01-11T18:42:54.035Z,82.05
2023-01-11T18:45:25.174Z,82.40
2023-01-11T18:47:52.693Z,82.35
2023-01-11T18:50:21.151Z,83.40
2023-01-11T18:52:52.463Z,84.25
2023-01-11T18:55:19.122Z,84.38
2023-01-11T18:57:47.428Z,84.59
2023-01-11T19:00:16.800Z,85.02
2023-01-11T19:02:44.507Z,84.84
2023-01-11T19:05:14.426Z,84.89
2023-01-11T19:07:41.187Z,84.90
2023-01-11T19:10:08.389Z,85.02
2023-01-11T19:12:36.995Z,85.00
2023-01-11T19:15:07.800Z,84.91
2023-01-11T19:17:35.004Z,84.93
2023-01-11T19:20:02.286Z,84.95
2023-01-11T19:22:29.345Z,85.12
2023-01-11T19:24:56.267Z,84.96
2023-01-11T19:27:30.705Z,85.34
2023-01-11T19:29:59.084Z,85.33
2023-01-11T19:32:28.703Z,85.44
2023-01-11T19:34:58.449Z,85.31
2023-01-11T19:37:28.547Z,85.52
2023-01-11T19:39:57.526Z,85.97
2023-01-11T19:42:27.343Z,86.03
2023-01-11T19:44:55.187Z,86.52
2023-01-11T19:47:25.680Z,86.81
2023-01-11T19:49:57.756Z,86.93
2023-01-11T19:52:24.897Z,87.25
2023-01-11T19:54:52.169Z,87.50
2023-01-11T19:57:23.338Z,88.22
2023-01-11T19:59:53.355Z,88.26
2023-01-11T20:02:23.255Z,88.77
2023-01-11T20:04:51.447Z,89.00
2023-01-11T20:07:18.405Z,89.23
2023-01-11T20:09:46.657Z,89.15
2023-01-11T20:12:15.826Z,89.41
2023-01-11T20:14:44.735Z,89.44
2023-01-11T20:17:11.436Z,90.08
2023-01-11T20:19:46.200Z,90.13
2023-01-11T20:22:12.904Z,90.75
2023-01-11T20:24:39.812Z,90.69
2023-01-11T20:27:07.694Z,90.85
2023-01-11T20:29:36.650Z,91.07
2023-01-11T20:32:27.627Z,90.98
2023-01-11T20:34:53.908Z,90.72
2023-01-11T20:37:20.943Z,90.79
2023-01-11T20:39:50.409Z,91.10
2023-01-11T20:42:19.449Z,91.13
2023-01-11T20:44:46.001Z,90.95
2023-01-11T20:47:16.808Z,91.06
2023-01-11T20:49:43.486Z,91.42
2023-01-11T20:52:10.115Z,91.26
2023-01-11T20:54:37.834Z,91.50
2023-01-11T20:57:12.844Z,91.39
2023-01-11T20:59:40.780Z,91.23
2023-01-11T21:02:07.808Z,91.28
2023-01-11T21:04:36.231Z,91.35
2023-01-11T21:07:04.251Z,91.44
2023-01-11T21:09:38.074Z,91.40
2023-01-11T21:12:07.298Z,91.37
2023-01-11T21:14:34.867Z,91.36
2023-01-11T21:17:02.866Z,91.50
2023-01-11T21:19:30.198Z,91.70
2023-01-11T21:21:58.160Z,91.66
2023-01-11T21:24:26.666Z,91.62
2023-01-11T21:26:53.862Z,91.78
2023-01-11T21:29:20.658Z,91.84
2023-01-11T21:31:47.438Z,91.99
2023-01-11T21:34:16.572Z,91.76
2023-01-11T21:36:44.815Z,91.74
2023-01-11T21:39:13.265Z,91.69
2023-01-11T21:41:58.406Z,91.56
2023-01-11T21:44:34.713Z,91.65
2023-01-11T21:47:03.615Z,91.57
2023-01-11T21:49:31.695Z,91.49
2023-01-11T21:51:59.665Z,91.46
2023-01-11T21:54:27.283Z,91.25
2023-01-11T21:56:53.906Z,91.42
2023-01-11T21:59:23.739Z,91.28
2023-01-11T22:01:50.946Z,91.09
2023-01-11T22:04:20.432Z,91.21
2023-01-11T22:06:51.660Z,91.21
2023-01-11T22:09:20.059Z,90.83
2023-01-11T22:11:51.280Z,90.62
2023-01-11T22:14:19.729Z,90.29
2023-01-11T22:16:46.404Z,90.20
2023-01-11T22:19:14.317Z,89.65
2023-01-11T22:21:42.075Z,89.44
2023-01-11T22:24:13.169Z,89.33
2023-01-11T22:26:40.637Z,89.06
2023-01-11T22:29:17.594Z,89.14
2023-01-11T22:32:01.126Z,89.15
2023-01-11T22:34:28.836Z,89.04
2023-01-11T22:36:56.575Z,88.88
2023-01-11T22:39:24.819Z,88.97
2023-01-11T22:41:51.923Z,88.92
2023-01-11T22:44:19.482Z,88.78
2023-01-11T22:46:47.064Z,88.55
2023-01-11T22:49:14.110Z,88.84
2023-01-11T22:51:44.613Z,88.96
2023-01-11T22:54:11.699Z,88.92
2023-01-11T22:56:42.630Z,89.06
2023-01-11T22:59:10.365Z,89.08
2023-01-11T23:01:39.913Z,88.99
2023-01-11T23:04:11.659Z,88.70
2023-01-11T23:06:40.368Z,88.43
2023-01-11T23:09:17.411Z,88.19
2023-01-11T23:12:03.404Z,88.33
2023-01-11T23:14:33.612Z,88.12
2023-01-11T23:17:24.711Z,87.81
2023-01-11T23:19:52.648Z,87.90
2023-01-11T23:22:19.589Z,88.08
2023-01-11T23:24:59.849Z,88.01
2023-01-11T23:27:30.308Z,88.03
2023-01-11T23:29:57.354Z,87.95
2023-01-11T23:32:26.306Z,88.33
2023-01-11T23:34:52.830Z,88.43
2023-01-11T23:37:19.597Z,88.30
2023-01-11T23:39:51.421Z,88.52
2023-01-11T23:42:27.465Z,88.76
2023-01-11T23:44:55.524Z,88.71
2023-01-11T23:47:24.979Z,88.58
2023-01-11T23:49:58.067Z,88.50
2023-01-11T23:52:28.073Z,88.61
2023-01-11T23:54:55.595Z,88.73
2023-01-11T23:57:23.174Z,88.65
2023-01-11T23:59:50.207Z,88.58
